Villa Reynolds, Argentina
Current Conditions -  °F | °C
As of 3:00 AM on Tuesday 27 Jan 2015 (Local Time) from SAOC Reporting Station
Broken Clouds Broken Clouds  
Wind Chill: 70°   Ceiling: 10000
Heat Index: 70°   Visibility: 6mi
Dew Point: 64°   Wind: 2mph
Humidity: 83%   Direction: 180°S
Pressure: 29.74"   Gusts: NA
Location:  33.73°S, 65.39°W
Report Text: SAOC 270600Z 18002KT 9999 SCT030 BKN10021/18 Q1007
Loading
Personal Weather Stations






























Interactive Weather Map New forecast layout! Learn more

10-Day Weather Forecast

Advertisements
Track Severe Weather on mobile